sensor_id;sensor_type;location;lat;lon;timestamp;pressure;altitude;pressure_sealevel;temperature;humidity
61761;BME280;47664;51.660;-0.100;2023-07-29T00:00:45;99850.68;;;18.42;58.39
61761;BME280;47664;51.660;-0.100;2023-07-29T00:03:13;99853.32;;;18.61;57.82
61761;BME280;47664;51.660;-0.100;2023-07-29T00:05:40;99861.79;;;18.76;57.64
61761;BME280;47664;51.660;-0.100;2023-07-29T00:08:07;99867.43;;;18.29;58.44
61761;BME280;47664;51.660;-0.100;2023-07-29T00:10:37;99868.67;;;18.23;58.80
61761;BME280;47664;51.660;-0.100;2023-07-29T00:13:04;99862.02;;;18.47;58.61
61761;BME280;47664;51.660;-0.100;2023-07-29T00:15:32;99856.26;;;18.48;58.23
61761;BME280;47664;51.660;-0.100;2023-07-29T00:17:59;99861.49;;;18.38;58.50
61761;BME280;47664;51.660;-0.100;2023-07-29T00:20:27;99856.96;;;18.35;59.32
61761;BME280;47664;51.660;-0.100;2023-07-29T00:22:54;99864.83;;;18.70;58.60
61761;BME280;47664;51.660;-0.100;2023-07-29T00:25:21;99859.64;;;18.37;58.31
61761;BME280;47664;51.660;-0.100;2023-07-29T00:27:48;99866.45;;;18.82;57.63
61761;BME280;47664;51.660;-0.100;2023-07-29T00:30:15;99862.86;;;19.25;57.12
61761;BME280;47664;51.660;-0.100;2023-07-29T00:32:42;99862.81;;;18.36;58.58
61761;BME280;47664;51.660;-0.100;2023-07-29T00:35:09;99858.47;;;18.55;58.47
61761;BME280;47664;51.660;-0.100;2023-07-29T00:37:36;99856.00;;;18.44;57.96
61761;BME280;47664;51.660;-0.100;2023-07-29T00:40:03;99856.69;;;18.49;58.51
61761;BME280;47664;51.660;-0.100;2023-07-29T00:42:31;99854.75;;;18.35;58.84
61761;BME280;47664;51.660;-0.100;2023-07-29T00:44:58;99851.08;;;18.46;58.73
61761;BME280;47664;51.660;-0.100;2023-07-29T00:47:25;99851.71;;;17.96;60.12
61761;BME280;47664;51.660;-0.100;2023-07-29T00:49:53;99852.82;;;17.36;60.89
61761;BME280;47664;51.660;-0.100;2023-07-29T00:52:20;99855.67;;;17.82;60.47
61761;BME280;47664;51.660;-0.100;2023-07-29T00:54:47;99853.18;;;17.95;59.62
61761;BME280;47664;51.660;-0.100;2023-07-29T00:57:15;99855.19;;;18.05;59.26
61761;BME280;47664;51.660;-0.100;2023-07-29T00:59:43;99858.00;;;18.17;58.98
61761;BME280;47664;51.660;-0.100;2023-07-29T01:02:10;99857.49;;;17.68;60.45
61761;BME280;47664;51.660;-0.100;2023-07-29T01:04:38;99856.24;;;17.66;59.97
61761;BME280;47664;51.660;-0.100;2023-07-29T01:07:11;99859.45;;;18.23;59.75
61761;BME280;47664;51.660;-0.100;2023-07-29T01:09:48;99857.53;;;18.07;58.39
61761;BME280;47664;51.660;-0.100;2023-07-29T01:12:22;99863.64;;;18.08;58.80
61761;BME280;47664;51.660;-0.100;2023-07-29T01:14:58;99862.08;;;18.06;58.62
61761;BME280;47664;51.660;-0.100;2023-07-29T01:17:33;99862.89;;;18.14;59.36
61761;BME280;47664;51.660;-0.100;2023-07-29T01:20:01;99861.50;;;17.88;60.07
61761;BME280;47664;51.660;-0.100;2023-07-29T01:22:32;99859.17;;;18.00;59.17
61761;BME280;47664;51.660;-0.100;2023-07-29T01:25:01;99858.58;;;18.20;58.82
61761;BME280;47664;51.660;-0.100;2023-07-29T01:27:28;99857.21;;;17.56;59.67
61761;BME280;47664;51.660;-0.100;2023-07-29T01:29:57;99855.31;;;17.23;61.05
61761;BME280;47664;51.660;-0.100;2023-07-29T01:32:29;99857.52;;;17.07;62.26
61761;BME280;47664;51.660;-0.100;2023-07-29T01:35:05;99851.69;;;17.16;61.29
61761;BME280;47664;51.660;-0.100;2023-07-29T01:37:37;99847.91;;;16.92;60.82
61761;BME280;47664;51.660;-0.100;2023-07-29T01:40:07;99852.33;;;17.48;59.90
61761;BME280;47664;51.660;-0.100;2023-07-29T01:42:35;99855.76;;;17.25;59.88
61761;BME280;47664;51.660;-0.100;2023-07-29T01:45:04;99846.71;;;17.31;60.45
61761;BME280;47664;51.660;-0.100;2023-07-29T01:47:32;99844.31;;;17.26;60.32
61761;BME280;47664;51.660;-0.100;2023-07-29T01:49:59;99838.59;;;17.22;60.63
61761;BME280;47664;51.660;-0.100;2023-07-29T01:52:26;99841.22;;;17.44;60.39
61761;BME280;47664;51.660;-0.100;2023-07-29T01:54:53;99844.75;;;17.56;59.81
61761;BME280;47664;51.660;-0.100;2023-07-29T01:57:20;99845.41;;;17.75;59.29
61761;BME280;47664;51.660;-0.100;2023-07-29T01:59:47;99845.97;;;17.78;58.53
61761;BME280;47664;51.660;-0.100;2023-07-29T02:03:53;99845.94;;;18.06;57.13
61761;BME280;47664;51.660;-0.100;2023-07-29T02:06:21;99849.30;;;18.13;56.70
61761;BME280;47664;51.660;-0.100;2023-07-29T02:08:48;99854.54;;;17.92;58.55
61761;BME280;47664;51.660;-0.100;2023-07-29T02:11:15;99853.72;;;18.14;58.40
61761;BME280;47664;51.660;-0.100;2023-07-29T02:13:42;99849.73;;;17.39;59.25
61761;BME280;47664;51.660;-0.100;2023-07-29T02:16:09;99853.41;;;17.86;59.47
61761;BME280;47664;51.660;-0.100;2023-07-29T02:18:36;99849.74;;;17.55;59.70
61761;BME280;47664;51.660;-0.100;2023-07-29T02:21:03;99847.81;;;17.31;59.60
61761;BME280;47664;51.660;-0.100;2023-07-29T02:23:30;99849.17;;;17.68;59.73
61761;BME280;47664;51.660;-0.100;2023-07-29T02:25:57;99848.92;;;17.21;60.21
61761;BME280;47664;51.660;-0.100;2023-07-29T02:28:24;99850.33;;;17.45;60.44
61761;BME280;47664;51.660;-0.100;2023-07-29T02:31:11;99849.78;;;17.48;59.84
61761;BME280;47664;51.660;-0.100;2023-07-29T02:33:39;99839.12;;;17.31;60.07
61761;BME280;47664;51.660;-0.100;2023-07-29T02:36:06;99834.46;;;17.78;59.23
61761;BME280;47664;51.660;-0.100;2023-07-29T02:38:33;99834.88;;;17.80;58.91
61761;BME280;47664;51.660;-0.100;2023-07-29T02:41:00;99841.29;;;17.90;58.87
61761;BME280;47664;51.660;-0.100;2023-07-29T02:43:27;99843.91;;;17.86;59.20
61761;BME280;47664;51.660;-0.100;2023-07-29T02:45:54;99840.99;;;17.65;59.46
61761;BME280;47664;51.660;-0.100;2023-07-29T02:48:21;99830.91;;;17.74;58.85
61761;BME280;47664;51.660;-0.100;2023-07-29T02:50:48;99822.22;;;18.03;59.01
61761;BME280;47664;51.660;-0.100;2023-07-29T02:53:14;99824.47;;;17.78;59.78
61761;BME280;47664;51.660;-0.100;2023-07-29T02:55:41;99828.66;;;17.41;59.42
61761;BME280;47664;51.660;-0.100;2023-07-29T02:58:08;99833.93;;;17.67;59.65
61761;BME280;47664;51.660;-0.100;2023-07-29T03:00:36;99830.96;;;17.90;58.99
61761;BME280;47664;51.660;-0.100;2023-07-29T03:03:03;99834.40;;;18.11;58.60
61761;BME280;47664;51.660;-0.100;2023-07-29T03:05:30;99830.82;;;18.12;58.54
61761;BME280;47664;51.660;-0.100;2023-07-29T03:07:58;99830.82;;;18.05;58.51
61761;BME280;47664;51.660;-0.100;2023-07-29T03:10:25;99828.30;;;17.70;59.08
61761;BME280;47664;51.660;-0.100;2023-07-29T03:12:54;99827.14;;;17.75;59.29
61761;BME280;47664;51.660;-0.100;2023-07-29T03:15:23;99832.80;;;17.85;59.66
61761;BME280;47664;51.660;-0.100;2023-07-29T03:17:51;99832.34;;;17.48;59.46
61761;BME280;47664;51.660;-0.100;2023-07-29T03:20:18;99833.67;;;17.34;60.35
61761;BME280;47664;51.660;-0.100;2023-07-29T03:22:45;99841.77;;;17.36;60.14
61761;BME280;47664;51.660;-0.100;2023-07-29T03:25:13;99841.67;;;17.54;59.68
61761;BME280;47664;51.660;-0.100;2023-07-29T03:27:40;99836.64;;;17.53;59.34
61761;BME280;47664;51.660;-0.100;2023-07-29T03:30:07;99837.66;;;17.92;58.81
61761;BME280;47664;51.660;-0.100;2023-07-29T03:32:34;99843.09;;;17.78;58.86
61761;BME280;47664;51.660;-0.100;2023-07-29T03:35:01;99839.07;;;17.69;59.17
61761;BME280;47664;51.660;-0.100;2023-07-29T03:37:28;99831.04;;;18.05;58.57
61761;BME280;47664;51.660;-0.100;2023-07-29T03:39:55;99830.28;;;17.85;57.80
61761;BME280;47664;51.660;-0.100;2023-07-29T03:42:22;99831.97;;;18.12;57.75
61761;BME280;47664;51.660;-0.100;2023-07-29T03:44:49;99827.85;;;17.89;58.41
61761;BME280;47664;51.660;-0.100;2023-07-29T03:47:16;99828.41;;;18.04;57.91
61761;BME280;47664;51.660;-0.100;2023-07-29T03:49:42;99838.64;;;17.28;59.09
61761;BME280;47664;51.660;-0.100;2023-07-29T03:52:09;99842.03;;;17.89;58.63
61761;BME280;47664;51.660;-0.100;2023-07-29T03:54:37;99843.26;;;17.90;58.37
61761;BME280;47664;51.660;-0.100;2023-07-29T03:57:04;99840.35;;;18.27;58.19
61761;BME280;47664;51.660;-0.100;2023-07-29T03:59:32;99837.39;;;17.66;58.81
61761;BME280;47664;51.660;-0.100;2023-07-29T04:01:59;99835.10;;;17.57;58.74
61761;BME280;47664;51.660;-0.100;2023-07-29T04:04:26;99839.66;;;17.37;59.30
61761;BME280;47664;51.660;-0.100;2023-07-29T04:06:53;99837.61;;;17.51;59.20
61761;BME280;47664;51.660;-0.100;2023-07-29T04:09:20;99846.77;;;17.51;59.50
61761;BME280;47664;51.660;-0.100;2023-07-29T04:11:52;99849.51;;;16.93;60.35
61761;BME280;47664;51.660;-0.100;2023-07-29T04:14:19;99847.15;;;17.64;60.09
61761;BME280;47664;51.660;-0.100;2023-07-29T04:16:46;99846.94;;;17.58;58.76
61761;BME280;47664;51.660;-0.100;2023-07-29T04:19:13;99849.64;;;17.41;59.32
61761;BME280;47664;51.660;-0.100;2023-07-29T04:21:40;99852.22;;;17.76;58.90
61761;BME280;47664;51.660;-0.100;2023-07-29T04:24:07;99851.46;;;17.94;58.40
61761;BME280;47664;51.660;-0.100;2023-07-29T04:26:34;99853.00;;;17.72;58.67
61761;BME280;47664;51.660;-0.100;2023-07-29T04:29:01;99852.38;;;17.77;58.79
61761;BME280;47664;51.660;-0.100;2023-07-29T04:31:28;99852.81;;;17.90;58.27
61761;BME280;47664;51.660;-0.100;2023-07-29T04:33:54;99845.92;;;17.65;59.03
61761;BME280;47664;51.660;-0.100;2023-07-29T04:36:21;99842.82;;;17.68;59.43
61761;BME280;47664;51.660;-0.100;2023-07-29T04:38:48;99844.34;;;17.17;60.18
61761;BME280;47664;51.660;-0.100;2023-07-29T04:41:15;99846.35;;;17.85;59.91
61761;BME280;47664;51.660;-0.100;2023-07-29T04:43:42;99842.94;;;17.17;59.74
61761;BME280;47664;51.660;-0.100;2023-07-29T04:46:09;99836.12;;;17.63;59.41
61761;BME280;47664;51.660;-0.100;2023-07-29T04:48:36;99814.87;;;17.52;59.41
61761;BME280;47664;51.660;-0.100;2023-07-29T04:51:03;99818.52;;;17.40;58.91
61761;BME280;47664;51.660;-0.100;2023-07-29T04:53:30;99836.31;;;17.85;59.07
61761;BME280;47664;51.660;-0.100;2023-07-29T04:55:57;99845.24;;;17.54;59.62
61761;BME280;47664;51.660;-0.100;2023-07-29T04:58:24;99844.54;;;17.86;59.19
61761;BME280;47664;51.660;-0.100;2023-07-29T05:00:51;99842.86;;;17.56;59.44
61761;BME280;47664;51.660;-0.100;2023-07-29T05:03:18;99839.10;;;17.66;59.91
61761;BME280;47664;51.660;-0.100;2023-07-29T05:05:45;99839.19;;;17.16;60.36
61761;BME280;47664;51.660;-0.100;2023-07-29T05:08:11;99844.77;;;17.59;60.14
61761;BME280;47664;51.660;-0.100;2023-07-29T05:10:39;99840.20;;;17.43;60.55
61761;BME280;47664;51.660;-0.100;2023-07-29T05:13:07;99834.84;;;17.58;60.32
61761;BME280;47664;51.660;-0.100;2023-07-29T05:15:34;99839.19;;;17.49;60.61
61761;BME280;47664;51.660;-0.100;2023-07-29T05:18:01;99843.88;;;17.34;61.41
61761;BME280;47664;51.660;-0.100;2023-07-29T05:20:28;99843.24;;;16.94;62.66
61761;BME280;47664;51.660;-0.100;2023-07-29T05:22:55;99841.28;;;17.48;61.65
61761;BME280;47664;51.660;-0.100;2023-07-29T05:25:21;99838.06;;;17.68;61.68
61761;BME280;47664;51.660;-0.100;2023-07-29T05:27:48;99839.91;;;17.26;61.10
61761;BME280;47664;51.660;-0.100;2023-07-29T05:30:15;99838.83;;;17.17;62.08
61761;BME280;47664;51.660;-0.100;2023-07-29T05:32:42;99833.99;;;16.95;62.20
61761;BME280;47664;51.660;-0.100;2023-07-29T05:35:09;99831.94;;;17.25;61.76
61761;BME280;47664;51.660;-0.100;2023-07-29T05:37:38;99835.25;;;17.33;60.93
61761;BME280;47664;51.660;-0.100;2023-07-29T05:40:06;99829.92;;;17.31;60.41
61761;BME280;47664;51.660;-0.100;2023-07-29T05:42:34;99833.84;;;17.73;60.68
61761;BME280;47664;51.660;-0.100;2023-07-29T05:45:02;99837.00;;;17.75;60.25
61761;BME280;47664;51.660;-0.100;2023-07-29T05:47:29;99843.68;;;17.69;60.78
61761;BME280;47664;51.660;-0.100;2023-07-29T05:49:56;99843.60;;;17.44;60.76
61761;BME280;47664;51.660;-0.100;2023-07-29T05:52:23;99845.70;;;17.22;60.67
61761;BME280;47664;51.660;-0.100;2023-07-29T05:54:49;99848.61;;;17.79;60.71
61761;BME280;47664;51.660;-0.100;2023-07-29T05:57:17;99851.23;;;17.65;60.89
61761;BME280;47664;51.660;-0.100;2023-07-29T05:59:44;99851.63;;;17.29;60.58
61761;BME280;47664;51.660;-0.100;2023-07-29T06:02:11;99853.94;;;17.18;61.38
61761;BME280;47664;51.660;-0.100;2023-07-29T06:04:38;99853.90;;;16.99;61.76
61761;BME280;47664;51.660;-0.100;2023-07-29T06:07:06;99853.50;;;17.43;61.18
61761;BME280;47664;51.660;-0.100;2023-07-29T06:09:33;99853.82;;;17.32;61.13
61761;BME280;47664;51.660;-0.100;2023-07-29T06:12:00;99853.58;;;17.65;60.69
61761;BME280;47664;51.660;-0.100;2023-07-29T06:14:28;99854.08;;;17.24;61.22
61761;BME280;47664;51.660;-0.100;2023-07-29T06:16:55;99854.11;;;17.31;61.48
61761;BME280;47664;51.660;-0.100;2023-07-29T06:19:21;99852.43;;;17.42;61.69
61761;BME280;47664;51.660;-0.100;2023-07-29T06:21:48;99853.73;;;17.23;61.45
61761;BME280;47664;51.660;-0.100;2023-07-29T06:24:15;99848.65;;;17.50;61.15
61761;BME280;47664;51.660;-0.100;2023-07-29T06:26:42;99850.43;;;17.21;61.03
61761;BME280;47664;51.660;-0.100;2023-07-29T06:29:09;99852.29;;;17.59;60.34
61761;BME280;47664;51.660;-0.100;2023-07-29T06:31:36;99855.08;;;17.71;60.69
61761;BME280;47664;51.660;-0.100;2023-07-29T06:34:04;99849.90;;;18.02;59.89
61761;BME280;47664;51.660;-0.100;2023-07-29T06:36:30;99848.13;;;17.53;60.03
61761;BME280;47664;51.660;-0.100;2023-07-29T06:38:57;99851.82;;;17.72;59.56
61761;BME280;47664;51.660;-0.100;2023-07-29T06:41:24;99853.41;;;17.94;59.71
61761;BME280;47664;51.660;-0.100;2023-07-29T06:43:51;99855.51;;;17.43;59.73
61761;BME280;47664;51.660;-0.100;2023-07-29T06:46:18;99857.35;;;17.18;61.05
61761;BME280;47664;51.660;-0.100;2023-07-29T06:48:45;99861.97;;;16.79;61.66
61761;BME280;47664;51.660;-0.100;2023-07-29T06:51:12;99860.34;;;17.31;61.04
61761;BME280;47664;51.660;-0.100;2023-07-29T06:53:39;99864.99;;;16.90;61.12
61761;BME280;47664;51.660;-0.100;2023-07-29T06:56:06;99863.08;;;17.48;60.65
61761;BME280;47664;51.660;-0.100;2023-07-29T06:58:34;99863.43;;;17.75;60.55
61761;BME280;47664;51.660;-0.100;2023-07-29T07:01:01;99864.04;;;17.50;60.34
61761;BME280;47664;51.660;-0.100;2023-07-29T07:03:28;99870.19;;;17.86;59.64
61761;BME280;47664;51.660;-0.100;2023-07-29T07:05:54;99867.81;;;17.81;59.35
61761;BME280;47664;51.660;-0.100;2023-07-29T07:08:22;99866.68;;;17.60;59.43
61761;BME280;47664;51.660;-0.100;2023-07-29T07:10:49;99866.09;;;17.64;59.77
61761;BME280;47664;51.660;-0.100;2023-07-29T07:13:16;99866.44;;;17.68;59.89
61761;BME280;47664;51.660;-0.100;2023-07-29T07:15:42;99867.61;;;16.93;60.63
61761;BME280;47664;51.660;-0.100;2023-07-29T07:18:09;99867.44;;;18.03;59.85
61761;BME280;47664;51.660;-0.100;2023-07-29T07:20:37;99872.43;;;17.84;59.07
61761;BME280;47664;51.660;-0.100;2023-07-29T07:23:04;99871.95;;;17.89;59.35
61761;BME280;47664;51.660;-0.100;2023-07-29T07:25:31;99871.66;;;17.81;59.08
61761;BME280;47664;51.660;-0.100;2023-07-29T07:27:58;99874.69;;;17.68;59.15
61761;BME280;47664;51.660;-0.100;2023-07-29T07:30:24;99875.26;;;17.91;58.72
61761;BME280;47664;51.660;-0.100;2023-07-29T07:32:51;99871.96;;;17.87;58.48
61761;BME280;47664;51.660;-0.100;2023-07-29T07:35:18;99873.86;;;18.04;58.48
61761;BME280;47664;51.660;-0.100;2023-07-29T07:37:45;99873.41;;;17.98;58.51
61761;BME280;47664;51.660;-0.100;2023-07-29T07:40:12;99875.12;;;18.22;58.39
61761;BME280;47664;51.660;-0.100;2023-07-29T07:42:39;99875.70;;;18.18;57.58
61761;BME280;47664;51.660;-0.100;2023-07-29T07:45:07;99870.47;;;18.81;57.25
61761;BME280;47664;51.660;-0.100;2023-07-29T07:47:33;99872.19;;;18.69;57.26
61761;BME280;47664;51.660;-0.100;2023-07-29T07:50:00;99867.82;;;18.67;56.56
61761;BME280;47664;51.660;-0.100;2023-07-29T07:52:28;99866.38;;;18.27;56.65
61761;BME280;47664;51.660;-0.100;2023-07-29T07:54:55;99865.94;;;18.58;57.63
61761;BME280;47664;51.660;-0.100;2023-07-29T07:57:23;99859.33;;;18.58;56.88
61761;BME280;47664;51.660;-0.100;2023-07-29T07:59:49;99856.95;;;18.60;56.73
61761;BME280;47664;51.660;-0.100;2023-07-29T08:02:16;99862.15;;;18.82;56.77
61761;BME280;47664;51.660;-0.100;2023-07-29T08:04:43;99857.77;;;18.63;56.00
61761;BME280;47664;51.660;-0.100;2023-07-29T08:07:10;99864.71;;;18.93;55.75
61761;BME280;47664;51.660;-0.100;2023-07-29T08:09:37;99867.61;;;18.50;56.59
61761;BME280;47664;51.660;-0.100;2023-07-29T08:12:05;99868.11;;;18.60;56.07
61761;BME280;47664;51.660;-0.100;2023-07-29T08:14:32;99863.38;;;18.68;56.09
61761;BME280;47664;51.660;-0.100;2023-07-29T08:16:59;99864.90;;;18.18;57.12
61761;BME280;47664;51.660;-0.100;2023-07-29T08:19:26;99868.15;;;18.60;56.21
61761;BME280;47664;51.660;-0.100;2023-07-29T08:21:54;99859.42;;;18.93;55.68
61761;BME280;47664;51.660;-0.100;2023-07-29T08:24:21;99857.98;;;19.07;54.96
61761;BME280;47664;51.660;-0.100;2023-07-29T08:26:48;99856.19;;;18.89;54.39
61761;BME280;47664;51.660;-0.100;2023-07-29T08:29:15;99851.51;;;18.82;54.64
61761;BME280;47664;51.660;-0.100;2023-07-29T08:31:42;99849.97;;;18.53;54.38
61761;BME280;47664;51.660;-0.100;2023-07-29T08:34:09;99848.89;;;19.06;53.83
61761;BME280;47664;51.660;-0.100;2023-07-29T08:36:36;99851.99;;;19.28;53.62
61761;BME280;47664;51.660;-0.100;2023-07-29T08:39:03;99851.60;;;19.42;53.31
61761;BME280;47664;51.660;-0.100;2023-07-29T08:41:35;99851.99;;;19.68;52.82
61761;BME280;47664;51.660;-0.100;2023-07-29T08:44:09;99853.30;;;19.77;53.79
61761;BME280;47664;51.660;-0.100;2023-07-29T08:46:38;99853.67;;;20.02;52.04
61761;BME280;47664;51.660;-0.100;2023-07-29T08:49:06;99852.82;;;19.78;51.48
61761;BME280;47664;51.660;-0.100;2023-07-29T08:51:34;99852.66;;;20.02;51.80
61761;BME280;47664;51.660;-0.100;2023-07-29T08:54:03;99849.74;;;20.17;50.68
61761;BME280;47664;51.660;-0.100;2023-07-29T08:56:30;99847.31;;;20.07;50.85
61761;BME280;47664;51.660;-0.100;2023-07-29T08:58:58;99846.47;;;20.39;51.17
61761;BME280;47664;51.660;-0.100;2023-07-29T09:01:26;99848.20;;;20.61;50.49
61761;BME280;47664;51.660;-0.100;2023-07-29T09:03:53;99843.85;;;20.79;49.40
61761;BME280;47664;51.660;-0.100;2023-07-29T09:06:21;99848.35;;;20.67;50.36
61761;BME280;47664;51.660;-0.100;2023-07-29T09:08:49;99849.14;;;20.38;48.88
61761;BME280;47664;51.660;-0.100;2023-07-29T09:11:17;99847.48;;;20.61;48.85
61761;BME280;47664;51.660;-0.100;2023-07-29T09:13:45;99850.47;;;20.26;48.26
61761;BME280;47664;51.660;-0.100;2023-07-29T09:16:13;99850.58;;;20.66;48.37
61761;BME280;47664;51.660;-0.100;2023-07-29T09:18:40;99852.91;;;21.21;48.51
61761;BME280;47664;51.660;-0.100;2023-07-29T09:21:07;99854.45;;;21.65;47.60
61761;BME280;47664;51.660;-0.100;2023-07-29T09:23:39;99857.21;;;21.37;46.97
61761;BME280;47664;51.660;-0.100;2023-07-29T09:26:07;99858.91;;;21.39;46.57
61761;BME280;47664;51.660;-0.100;2023-07-29T09:28:35;99857.08;;;21.26;47.11
61761;BME280;47664;51.660;-0.100;2023-07-29T09:31:03;99857.43;;;21.19;46.87
61761;BME280;47664;51.660;-0.100;2023-07-29T09:33:33;99862.22;;;20.82;48.51
61761;BME280;47664;51.660;-0.100;2023-07-29T09:36:00;99857.46;;;21.23;47.30
61761;BME280;47664;51.660;-0.100;2023-07-29T09:38:28;99858.02;;;21.29;47.26
61761;BME280;47664;51.660;-0.100;2023-07-29T09:40:56;99861.43;;;21.22;47.55
61761;BME280;47664;51.660;-0.100;2023-07-29T09:43:28;99865.77;;;20.90;47.33
61761;BME280;47664;51.660;-0.100;2023-07-29T09:45:56;99861.37;;;20.84;48.16
61761;BME280;47664;51.660;-0.100;2023-07-29T09:48:26;99860.17;;;21.32;46.64
61761;BME280;47664;51.660;-0.100;2023-07-29T09:50:52;99857.28;;;21.22;46.99
61761;BME280;47664;51.660;-0.100;2023-07-29T09:53:19;99854.14;;;20.82;45.08
61761;BME280;47664;51.660;-0.100;2023-07-29T09:55:48;99853.25;;;20.99;46.84
61761;BME280;47664;51.660;-0.100;2023-07-29T09:58:22;99856.75;;;21.36;46.11
61761;BME280;47664;51.660;-0.100;2023-07-29T10:00:53;99856.12;;;21.45;45.83
61761;BME280;47664;51.660;-0.100;2023-07-29T10:03:21;99854.57;;;21.89;44.43
61761;BME280;47664;51.660;-0.100;2023-07-29T10:05:49;99849.54;;;20.82;45.21
61761;BME280;47664;51.660;-0.100;2023-07-29T10:08:18;99857.73;;;21.23;44.62
61761;BME280;47664;51.660;-0.100;2023-07-29T10:10:45;99862.07;;;20.62;45.13
61761;BME280;47664;51.660;-0.100;2023-07-29T10:13:13;99859.88;;;20.73;45.03
61761;BME280;47664;51.660;-0.100;2023-07-29T10:15:41;99856.38;;;20.70;44.29
61761;BME280;47664;51.660;-0.100;2023-07-29T10:18:08;99853.41;;;21.56;44.20
61761;BME280;47664;51.660;-0.100;2023-07-29T10:20:35;99851.89;;;22.19;42.59
61761;BME280;47664;51.660;-0.100;2023-07-29T10:23:07;99849.02;;;22.88;41.17
61761;BME280;47664;51.660;-0.100;2023-07-29T10:25:38;99844.07;;;22.60;40.76
61761;BME280;47664;51.660;-0.100;2023-07-29T10:28:07;99846.67;;;23.52;39.55
61761;BME280;47664;51.660;-0.100;2023-07-29T10:30:34;99848.85;;;23.72;38.51
61761;BME280;47664;51.660;-0.100;2023-07-29T10:33:03;99845.26;;;24.13;39.04
61761;BME280;47664;51.660;-0.100;2023-07-29T10:35:32;99839.95;;;24.03;38.06
61761;BME280;47664;51.660;-0.100;2023-07-29T10:37:59;99848.74;;;23.74;39.64
61761;BME280;47664;51.660;-0.100;2023-07-29T10:40:44;99848.57;;;24.53;38.40
61761;BME280;47664;51.660;-0.100;2023-07-29T10:43:12;99850.23;;;23.94;39.20
61761;BME280;47664;51.660;-0.100;2023-07-29T10:45:41;99847.10;;;22.98;40.21
61761;BME280;47664;51.660;-0.100;2023-07-29T10:48:11;99842.56;;;22.99;40.74
61761;BME280;47664;51.660;-0.100;2023-07-29T10:50:38;99842.85;;;23.24;40.02
61761;BME280;47664;51.660;-0.100;2023-07-29T10:53:05;99841.63;;;22.51;41.06
61761;BME280;47664;51.660;-0.100;2023-07-29T10:55:46;99851.05;;;21.29;41.76
61761;BME280;47664;51.660;-0.100;2023-07-29T10:58:15;99855.11;;;21.66;42.89
61761;BME280;47664;51.660;-0.100;2023-07-29T11:00:42;99855.52;;;21.20;43.30
61761;BME280;47664;51.660;-0.100;2023-07-29T11:03:12;99862.58;;;21.02;43.82
61761;BME280;47664;51.660;-0.100;2023-07-29T11:05:49;99863.28;;;21.12;43.56
61761;BME280;47664;51.660;-0.100;2023-07-29T11:08:18;99869.17;;;21.31;43.59
61761;BME280;47664;51.660;-0.100;2023-07-29T11:10:58;99867.25;;;21.05;43.81
61761;BME280;47664;51.660;-0.100;2023-07-29T11:13:26;99869.02;;;21.33;43.30
61761;BME280;47664;51.660;-0.100;2023-07-29T11:15:54;99863.57;;;20.61;44.16
61761;BME280;47664;51.660;-0.100;2023-07-29T11:18:21;99865.49;;;20.88;42.04
61761;BME280;47664;51.660;-0.100;2023-07-29T11:20:48;99860.94;;;21.04;41.70
61761;BME280;47664;51.660;-0.100;2023-07-29T11:23:15;99863.52;;;20.94;41.94
61761;BME280;47664;51.660;-0.100;2023-07-29T11:25:43;99865.82;;;20.66;41.77
61761;BME280;47664;51.660;-0.100;2023-07-29T11:28:09;99868.96;;;21.02;41.67
61761;BME280;47664;51.660;-0.100;2023-07-29T11:30:39;99869.53;;;20.61;41.85
61761;BME280;47664;51.660;-0.100;2023-07-29T11:33:07;99867.16;;;20.55;42.57
61761;BME280;47664;51.660;-0.100;2023-07-29T11:35:33;99866.33;;;20.60;42.55
61761;BME280;47664;51.660;-0.100;2023-07-29T11:38:00;99861.68;;;21.12;42.31
61761;BME280;47664;51.660;-0.100;2023-07-29T11:40:27;99865.29;;;21.53;42.41
61761;BME280;47664;51.660;-0.100;2023-07-29T11:42:55;99862.15;;;21.86;41.40
61761;BME280;47664;51.660;-0.100;2023-07-29T11:45:22;99855.65;;;21.78;41.09
61761;BME280;47664;51.660;-0.100;2023-07-29T11:47:49;99862.98;;;21.58;41.35
61761;BME280;47664;51.660;-0.100;2023-07-29T11:50:16;99858.03;;;21.59;40.94
61761;BME280;47664;51.660;-0.100;2023-07-29T11:52:44;99862.94;;;20.90;41.70
61761;BME280;47664;51.660;-0.100;2023-07-29T11:55:13;99859.15;;;21.54;41.39
61761;BME280;47664;51.660;-0.100;2023-07-29T11:57:42;99857.06;;;21.07;42.02
61761;BME280;47664;51.660;-0.100;2023-07-29T12:00:11;99856.55;;;21.30;41.43
61761;BME280;47664;51.660;-0.100;2023-07-29T12:02:40;99856.74;;;21.44;40.61
61761;BME280;47664;51.660;-0.100;2023-07-29T12:05:09;99864.67;;;21.68;41.33
61761;BME280;47664;51.660;-0.100;2023-07-29T12:07:39;99856.54;;;21.92;40.27
61761;BME280;47664;51.660;-0.100;2023-07-29T12:10:07;99862.38;;;22.17;39.89
61761;BME280;47664;51.660;-0.100;2023-07-29T12:12:42;99858.04;;;21.83;39.38
61761;BME280;47664;51.660;-0.100;2023-07-29T12:15:11;99862.19;;;21.68;40.09
61761;BME280;47664;51.660;-0.100;2023-07-29T12:17:40;99864.63;;;21.78;39.62
61761;BME280;47664;51.660;-0.100;2023-07-29T12:20:09;99853.46;;;21.80;39.60
61761;BME280;47664;51.660;-0.100;2023-07-29T12:22:36;99855.50;;;22.41;39.35
61761;BME280;47664;51.660;-0.100;2023-07-29T12:25:04;99860.50;;;22.06;39.93
61761;BME280;47664;51.660;-0.100;2023-07-29T12:27:31;99861.18;;;22.50;40.02
61761;BME280;47664;51.660;-0.100;2023-07-29T12:30:02;99859.04;;;22.46;38.75
61761;BME280;47664;51.660;-0.100;2023-07-29T12:32:29;99857.04;;;22.69;39.10
61761;BME280;47664;51.660;-0.100;2023-07-29T12:34:56;99863.22;;;22.49;39.55
61761;BME280;47664;51.660;-0.100;2023-07-29T12:37:31;99866.14;;;22.37;37.81
61761;BME280;47664;51.660;-0.100;2023-07-29T12:39:59;99872.67;;;21.94;39.19
61761;BME280;47664;51.660;-0.100;2023-07-29T12:42:26;99875.35;;;21.88;39.31
61761;BME280;47664;51.660;-0.100;2023-07-29T12:44:52;99872.23;;;21.65;39.29
61761;BME280;47664;51.660;-0.100;2023-07-29T12:47:19;99877.57;;;21.70;39.72
61761;BME280;47664;51.660;-0.100;2023-07-29T12:49:46;99877.86;;;21.02;40.75
61761;BME280;47664;51.660;-0.100;2023-07-29T12:52:13;99877.37;;;21.42;39.29
61761;BME280;47664;51.660;-0.100;2023-07-29T12:54:40;99872.98;;;21.81;38.68